Terminal Aerodrome Forecast
Issued by NWS Hastings, NE

Home | Current Version | Previous Version | Text Only | Print | Product List | Glossary On
Versions: 1 2 3 4 5 6 7 8 9 10 11 12 13 14 15
000
FTUS45 KGID 230544
TAFEAR
TAF
KEAR 230544Z 2306/2406 23008KT P6SM SCT250
     FM230800 29015KT P6SM SCT250 WS007/34045KT
     FM231500 32021G29KT P6SM FEW130 FEW250
     FM231800 32027G38KT P6SM FEW250
     FM232300 32019G27KT P6SM FEW250
     FM240300 31012KT P6SM SKC WS010/33045KT=

USA.gov is the U.S. government's official web portal to all federal, state and local government web resources and services.